地図

経路データ

SID SEASON NUMBER BASIN SUBBASIN NAME ISO_TIME NATURE LAT LON WMO_WIND WMO_PRES WMO_AGENCY TRACK_TYPE DIST2LAND LANDFALL IFLAG USA_AGENCY USA_ATCF_ID USA_LAT USA_LON USA_RECORD USA_STATUS USA_WIND USA_PRES USA_SSHS USA_R34_NE USA_R34_SE USA_R34_SW USA_R34_NW USA_R50_NE USA_R50_SE USA_R50_SW USA_R50_NW USA_R64_NE USA_R64_SE USA_R64_SW USA_R64_NW USA_POCI USA_ROCI USA_RMW USA_EYE TOKYO_LAT TOKYO_LON TOKYO_GRADE TOKYO_WIND TOKYO_PRES TOKYO_R50_DIR TOKYO_R50_LONG TOKYO_R50_SHORT TOKYO_R30_DIR TOKYO_R30_LONG TOKYO_R30_SHORT TOKYO_LAND CMA_LAT CMA_LON CMA_CAT CMA_WIND CMA_PRES HKO_LAT HKO_LON HKO_CAT HKO_WIND HKO_PRES NEWDELHI_LAT NEWDELHI_LON NEWDELHI_GRADE NEWDELHI_WIND NEWDELHI_PRES NEWDELHI_CI NEWDELHI_DP NEWDELHI_POCI REUNION_LAT REUNION_LON REUNION_TYPE REUNION_WIND REUNION_PRES REUNION_TNUM REUNION_CI REUNION_RMW REUNION_R34_NE REUNION_R34_SE REUNION_R34_SW REUNION_R34_NW REUNION_R50_NE REUNION_R50_SE REUNION_R50_SW REUNION_R50_NW REUNION_R64_NE REUNION_R64_SE REUNION_R64_SW REUNION_R64_NW BOM_LAT BOM_LON BOM_TYPE BOM_WIND BOM_PRES BOM_TNUM BOM_CI BOM_RMW BOM_R34_NE BOM_R34_SE BOM_R34_SW BOM_R34_NW BOM_R50_NE BOM_R50_SE BOM_R50_SW BOM_R50_NW BOM_R64_NE BOM_R64_SE BOM_R64_SW BOM_R64_NW BOM_ROCI BOM_POCI BOM_EYE BOM_POS_METHOD BOM_PRES_METHOD NADI_LAT NADI_LON NADI_CAT NADI_WIND NADI_PRES WELLINGTON_LAT WELLINGTON_LON WELLINGTON_WIND WELLINGTON_PRES DS824_LAT DS824_LON DS824_STAGE DS824_WIND DS824_PRES TD9636_LAT TD9636_LON TD9636_STAGE TD9636_WIND TD9636_PRES TD9635_LAT TD9635_LON TD9635_WIND TD9635_PRES TD9635_ROCI NEUMANN_LAT NEUMANN_LON NEUMANN_CLASS NEUMANN_WIND NEUMANN_PRES MLC_LAT MLC_LON MLC_CLASS MLC_WIND MLC_PRES USA_GUST BOM_GUST BOM_GUST_PER REUNION_GUST REUNION_GUST_PER USA_SEAHGT USA_SEARAD_NE USA_SEARAD_SE USA_SEARAD_SW USA_SEARAD_NW STORM_SPEED STORM_DIR
1923084N12146 1923 23 WP MM NOT_NAMED 1923-03-25 10:00:00 NR 11.7000 145.700 main 1549 1549 __________O___ -1 11.7000 145.700 4 5 327
1923084N12146 1923 23 WP MM NOT_NAMED 1923-03-25 12:00:00 NR 11.8361 145.614 main 1561 1561 __________P___ -1 11.8361 145.614 4 5 328
1923084N12146 1923 23 WP MM NOT_NAMED 1923-03-25 15:00:00 NR 12.0330 145.485 main 1584 1584 __________P___ -1 12.0330 145.485 4 5 327
1923084N12146 1923 23 WP MM NOT_NAMED 1923-03-25 18:00:00 NR 12.2112 145.359 main 1607 1607 __________P___ -1 12.2112 145.359 4 4 324
1923084N12146 1923 23 WP MM NOT_NAMED 1923-03-25 21:00:00 NR 12.3592 145.239 main 1631 1631 __________P___ -1 12.3592 145.239 4 4 321
1923084N12146 1923 23 WP MM NOT_NAMED 1923-03-25 22:00:00 NR 12.4000 145.200 main 1631 1631 __________O___ -1 12.4000 145.200 4 3 315
1923084N12146 1923 23 WP MM NOT_NAMED 1923-03-26 00:00:00 NR 12.4676 145.125 main 1644 1644 __________P___ -1 12.4676 145.125 4 3 309
1923084N12146 1923 23 WP MM NOT_NAMED 1923-03-26 03:00:00 NR 12.5436 145.019 main 1645 1645 __________P___ -1 12.5436 145.019 4 2 305
1923084N12146 1923 23 WP MM NOT_NAMED 1923-03-26 06:00:00 NR 12.6059 144.920 main 1657 1657 __________P___ -1 12.6059 144.920 4 2 305
1923084N12146 1923 23 WP MM NOT_NAMED 1923-03-26 09:00:00 NR 12.6732 144.829 main 1670 1670 __________P___ -1 12.6732 144.829 4 2 308
1923084N12146 1923 23 WP MM NOT_NAMED 1923-03-26 10:00:00 NR 12.7000 144.800 main 1670 1670 __________O___ -1 12.7000 144.800 4 3 318
1923084N12146 1923 23 WP MM NOT_NAMED 1923-03-26 12:00:00 NR 12.7745 144.742 main 1682 1682 __________P___ -1 12.7745 144.742 4 3 326
1923084N12146 1923 23 WP MM NOT_NAMED 1923-03-26 15:00:00 NR 12.8990 144.660 main 1693 1693 __________P___ -1 12.8990 144.660 4 3 329
1923084N12146 1923 23 WP MM NOT_NAMED 1923-03-26 18:00:00 NR 13.0304 144.587 main 1706 1706 __________P___ -1 13.0304 144.587 4 3 332
1923084N12146 1923 23 WP MM NOT_NAMED 1923-03-26 21:00:00 NR 13.1592 144.520 main 1729 1729 __________P___ -1 13.1592 144.520 4 3 333
1923084N12146 1923 23 WP MM NOT_NAMED 1923-03-26 22:00:00 NR 13.2000 144.500 main 1729 1729 __________O___ -1 13.2000 144.500 4 2 332
1923084N12146 1923 23 WP MM NOT_NAMED 1923-03-27 00:00:00 NR 13.2697 144.469 main 1740 1740 __________P___ -1 13.2697 144.469 4 2 338
1923084N12146 1923 23 WP MM NOT_NAMED 1923-03-27 03:00:00 NR 13.3680 144.428 main 1753 1753 __________P___ -1 13.3680 144.428 4 2 338
1923084N12146 1923 23 WP MM NOT_NAMED 1923-03-27 06:00:00 NR 13.4641 144.385 main 1764 1764 __________P___ -1 13.4641 144.385 4 2 333
1923084N12146 1923 23 WP MM NOT_NAMED 1923-03-27 09:00:00 NR 13.5645 144.325 main 1777 1777 __________P___ -1 13.5645 144.325 4 2 329
1923084N12146 1923 23 WP MM NOT_NAMED 1923-03-27 10:00:00 NR 13.6000 144.300 main 1777 1777 __________O___ -1 13.6000 144.300 4 2 321
1923084N12146 1923 23 WP MM NOT_NAMED 1923-03-27 12:00:00 NR 13.6566 144.242 main 1789 1789 __________P___ -1 13.6566 144.242 4 3 313
1923084N12146 1923 23 WP MM NOT_NAMED 1923-03-27 15:00:00 NR 13.7474 144.135 main 1791 1802 __________P___ -1 13.7474 144.135 4 3 312
1923084N12146 1923 23 WP MM NOT_NAMED 1923-03-27 18:00:00 NR 13.8646 144.006 main 1815 1815 __________P___ -1 13.8646 144.006 4 4 316
1923084N12146 1923 23 WP MM NOT_NAMED 1923-03-27 21:00:00 NR 14.0303 143.855 main 1828 1829 __________P___ -1 14.0303 143.855 4 5 320
1923084N12146 1923 23 WP MM NOT_NAMED 1923-03-27 22:00:00 NR 14.1000 143.800 main 1841 1841 __________O___ -1 14.1000 143.800 4 6 325
1923084N12146 1923 23 WP MM NOT_NAMED 1923-03-28 00:00:00 NR 14.2710 143.684 main 1864 1864 __________P___ -1 14.2710 143.684 4 7 328
1923084N12146 1923 23 WP MM NOT_NAMED 1923-03-28 03:00:00 NR 14.5780 143.491 main 1901 1901 __________P___ -1 14.5780 143.491 4 8 329
1923084N12146 1923 23 WP MM NOT_NAMED 1923-03-28 06:00:00 NR 14.9233 143.283 main 1931 1931 __________P___ -1 14.9233 143.283 4 8 330
1923084N12146 1923 23 WP MM NOT_NAMED 1923-03-28 09:00:00 NR 15.2818 143.070 main 1932 1922 __________P___ -1 15.2818 143.070 4 8 330
1923084N12146 1923 23 WP MM NOT_NAMED 1923-03-28 10:00:00 NR 15.4000 143.000 main 1923 1914 __________O___ -1 15.4000 143.000 4 8 329
1923084N12146 1923 23 WP MM NOT_NAMED 1923-03-28 12:00:00 NR 15.6061 142.866 main 1916 1899 __________P___ -1 15.6061 142.866 4 7 328
1923084N12146 1923 23 WP MM NOT_NAMED 1923-03-28 15:00:00 NR 15.9151 142.666 main 1901 1884 __________P___ -1 15.9151 142.666 4 7 328
1923084N12146 1923 23 WP MM NOT_NAMED 1923-03-28 18:00:00 NR 16.2350 142.466 main 1886 1870 __________P___ -1 16.2350 142.466 4 8 330
1923084N12146 1923 23 WP MM NOT_NAMED 1923-03-28 21:00:00 NR 16.5782 142.267 main 1875 1864 __________P___ -1 16.5782 142.267 4 8 331
1923084N12146 1923 23 WP MM NOT_NAMED 1923-03-28 22:00:00 NR 16.7000 142.200 main 1867 1859 __________O___ -1 16.7000 142.200 4 9 333
1923084N12146 1923 23 WP MM NOT_NAMED 1923-03-29 00:00:00 NR 16.9552 142.064 main 1865 1850 __________P___ -1 16.9552 142.064 4 9 334
1923084N12146 1923 23 WP MM NOT_NAMED 1923-03-29 03:00:00 NR 17.3632 141.860 main 1856 1839 __________P___ -1 17.3632 141.860 4 9 335
1923084N12146 1923 23 WP MM NOT_NAMED 1923-03-29 06:00:00 NR 17.7958 141.659 main 1839 1790 __________P___ -1 17.7958 141.659 4 10 337
1923084N12146 1923 23 WP MM NOT_NAMED 1923-03-29 09:00:00 NR 18.2467 141.463 main 1790 1765 __________P___ -1 18.2467 141.463 4 10 338
1923084N12146 1923 23 WP MM NOT_NAMED 1923-03-29 10:00:00 NR 18.4000 141.400 main 1765 1735 __________O___ -1 18.4000 141.400 4 9 332
1923084N12146 1923 23 WP MM NOT_NAMED 1923-03-29 12:00:00 NR 18.6425 141.239 main 1735 1686 __________P___ -1 18.6425 141.239 4 9 329
1923084N12146 1923 23 WP MM NOT_NAMED 1923-03-29 15:00:00 NR 19.0174 141.003 main 1686 1628 __________P___ -1 19.0174 141.003 4 9 334
1923084N12146 1923 23 WP MM NOT_NAMED 1923-03-29 18:00:00 NR 19.4666 140.812 main 1628 1562 __________P___ -1 19.4666 140.812 4 11 345
1923084N12146 1923 23 WP MM NOT_NAMED 1923-03-29 21:00:00 NR 20.0588 140.708 main 1562 1540 __________P___ -1 20.0588 140.708 4 13 353
1923084N12146 1923 23 WP MM NOT_NAMED 1923-03-29 22:00:00 NR 20.3000 140.700 main 1540 1476 __________O___ -1 20.3000 140.700 4 17 358
1923084N12146 1923 23 WP MM NOT_NAMED 1923-03-30 00:00:00 NR 20.8996 140.682 main 1476 1360 __________P___ -1 20.8996 140.682 4 20 2
1923084N12146 1923 23 WP MM NOT_NAMED 1923-03-30 03:00:00 NR 21.9512 140.747 main 1360 1256 __________P___ -1 21.9512 140.747 4 22 7
1923084N12146 1923 23 WP MM NOT_NAMED 1923-03-30 06:00:00 NR 23.0971 140.952 main 1256 1157 __________P___ -1 23.0971 140.952 4 24 13
1923084N12146 1923 23 WP MM NOT_NAMED 1923-03-30 09:00:00 NR 24.2380 141.330 main 1157 1132 __________P___ -1 24.2380 141.330 4 24 18
1923084N12146 1923 23 WP MM NOT_NAMED 1923-03-30 10:00:00 NR 24.6000 141.500 main 1127 1079 __________O___ -1 24.6000 141.500 4 23 27
1923084N12146 1923 23 WP MM NOT_NAMED 1923-03-30 12:00:00 NR 25.2809 141.910 main 1079 1004 __________P___ -1 25.2809 141.910 4 23 33
1923084N12146 1923 23 WP MM NOT_NAMED 1923-03-30 15:00:00 NR 26.2083 142.676 main 1006 938 __________P___ -1 26.2083 142.676 4 23 40
1923084N12146 1923 23 WP MM NOT_NAMED 1923-03-30 18:00:00 NR 27.0514 143.577 main 938 899 __________P___ -1 27.0514 143.577 4 23 46
1923084N12146 1923 23 WP MM NOT_NAMED 1923-03-30 21:00:00 NR 27.8423 144.562 main 908 888 __________P___ -1 27.8423 144.562 4 24 48
1923084N12146 1923 23 WP MM NOT_NAMED 1923-03-30 22:00:00 NR 28.1000 144.900 main 893 __________O___ -1 28.1000 144.900 4 24 49

デジタル台風データ・検索

IBTrACS Databaseについて

本データベースは、米国NOAAが公開する1842年以降の世界の熱帯低気圧のベストトラックデータアーカイブInternational Best Track Archive for Climate Stewardship (IBTrACS)を、ウェブで閲覧しやすい形式に変換したものです。

最終更新日:2021-12-08